createdAt,value
2019-03-29T00:00:46.631Z,100454.19
2019-03-29T00:03:14.000Z,100460.52
2019-03-29T00:05:41.338Z,100451.89
2019-03-29T00:08:09.298Z,100460.50
2019-03-29T00:10:37.162Z,100460.63
2019-03-29T00:13:04.554Z,100464.31
2019-03-29T00:15:31.844Z,100454.70
2019-03-29T00:17:59.154Z,100464.80
2019-03-29T00:20:26.416Z,100468.14
2019-03-29T00:22:53.870Z,100451.03
2019-03-29T00:25:21.125Z,100483.56
2019-03-29T00:27:48.730Z,100453.41
2019-03-29T00:30:16.010Z,100451.62
2019-03-29T00:32:43.675Z,100444.56
2019-03-29T00:35:10.982Z,100458.53
2019-03-29T00:37:52.761Z,100454.84
2019-03-29T00:40:10.144Z,100454.97
2019-03-29T00:42:37.484Z,100451.73
2019-03-29T00:45:05.460Z,100451.30
2019-03-29T00:47:32.762Z,100449.30
2019-03-29T00:50:00.097Z,100455.30
2019-03-29T00:52:27.575Z,100456.63
2019-03-29T00:54:55.070Z,100446.95
2019-03-29T00:57:23.196Z,100454.02
2019-03-29T00:59:50.658Z,100446.94
2019-03-29T01:02:18.893Z,100445.22
2019-03-29T01:04:46.806Z,100438.05
2019-03-29T01:07:14.056Z,100449.59
2019-03-29T01:09:41.442Z,100439.44
2019-03-29T01:12:08.726Z,100439.04
2019-03-29T01:14:36.385Z,100436.91
2019-03-29T01:17:03.677Z,100436.61
2019-03-29T01:19:30.954Z,100473.66
2019-03-29T01:21:58.202Z,100429.85
2019-03-29T01:24:25.485Z,100427.41
2019-03-29T01:26:54.628Z,100438.75
2019-03-29T01:29:23.818Z,100430.92
2019-03-29T01:31:51.449Z,100425.19
2019-03-29T01:34:18.711Z,100425.33
2019-03-29T01:36:46.198Z,100430.19
2019-03-29T01:39:13.645Z,100426.34
2019-03-29T01:41:40.921Z,100430.80
2019-03-29T01:44:08.311Z,100426.23
2019-03-29T01:46:35.603Z,100434.13
2019-03-29T01:49:04.266Z,100429.46
2019-03-29T01:51:32.546Z,100424.77
2019-03-29T01:53:59.812Z,100417.08
2019-03-29T01:56:27.262Z,100414.67
2019-03-29T01:58:54.524Z,100452.80
2019-03-29T02:01:21.888Z,100407.63
2019-03-29T02:03:49.163Z,100399.96
2019-03-29T02:06:16.508Z,100401.56
2019-03-29T02:08:43.914Z,100401.17
2019-03-29T02:11:11.150Z,100396.63
2019-03-29T02:13:38.537Z,100394.77
2019-03-29T02:16:05.898Z,100393.66
2019-03-29T02:18:33.244Z,100384.55
2019-03-29T02:21:01.286Z,100397.09
2019-03-29T02:23:28.694Z,100391.84
2019-03-29T02:25:55.958Z,100400.11
2019-03-29T02:28:23.314Z,100383.13
2019-03-29T02:30:50.588Z,100386.97
2019-03-29T02:33:17.862Z,100380.82
2019-03-29T02:35:45.160Z,100380.29
2019-03-29T02:38:12.524Z,100382.75
2019-03-29T02:40:39.792Z,100385.55
2019-03-29T02:43:07.086Z,100385.98
2019-03-29T02:45:34.907Z,100388.80
2019-03-29T02:48:02.133Z,100381.33
2019-03-29T02:50:29.731Z,100375.48
2019-03-29T02:52:56.964Z,100379.44
2019-03-29T02:55:24.318Z,100375.17
2019-03-29T02:57:51.737Z,100375.87
2019-03-29T03:00:19.008Z,100378.48
2019-03-29T03:02:46.276Z,100375.45
2019-03-29T03:05:13.562Z,100372.64
2019-03-29T03:07:40.872Z,100371.69
2019-03-29T03:10:08.120Z,100373.73
2019-03-29T03:12:35.444Z,100382.42
2019-03-29T03:15:03.073Z,100373.34
2019-03-29T03:17:30.324Z,100369.97
2019-03-29T03:19:57.616Z,100371.17
2019-03-29T03:22:24.855Z,100376.03
2019-03-29T03:24:52.135Z,100375.00
2019-03-29T03:27:19.428Z,100375.09
2019-03-29T03:29:48.454Z,100376.53
2019-03-29T03:32:16.348Z,100368.56
2019-03-29T03:34:45.616Z,100376.34
2019-03-29T03:37:12.907Z,100375.47
2019-03-29T03:39:42.491Z,100368.58
2019-03-29T03:42:09.749Z,100366.05
2019-03-29T03:44:39.548Z,100378.80
2019-03-29T03:47:06.807Z,100374.75
2019-03-29T03:49:34.318Z,100379.50
2019-03-29T03:52:01.644Z,100380.84
2019-03-29T03:54:28.945Z,100370.23
2019-03-29T03:56:56.248Z,100368.50
2019-03-29T03:59:24.561Z,100364.27
2019-03-29T04:01:51.855Z,100361.05
2019-03-29T04:04:19.513Z,100367.83
2019-03-29T04:06:46.975Z,100366.52
2019-03-29T04:09:17.701Z,100361.77
2019-03-29T04:11:44.951Z,100365.31
2019-03-29T04:14:14.484Z,100358.04
2019-03-29T04:16:41.775Z,100359.03
2019-03-29T04:19:09.016Z,100356.02
2019-03-29T04:21:36.384Z,100357.02
2019-03-29T04:24:03.665Z,100357.44
2019-03-29T04:26:31.995Z,100358.75
2019-03-29T04:29:04.617Z,100357.72
2019-03-29T04:31:29.132Z,100354.81
2019-03-29T04:33:56.380Z,100358.11
2019-03-29T04:36:23.763Z,100364.61
2019-03-29T04:38:54.678Z,100359.73
2019-03-29T04:41:21.934Z,100354.98
2019-03-29T04:43:49.225Z,100362.14
2019-03-29T04:46:16.592Z,100359.34
2019-03-29T04:48:43.893Z,100365.99
2019-03-29T04:51:13.973Z,100362.27
2019-03-29T04:53:41.283Z,100365.00
2019-03-29T04:56:08.647Z,100367.41
2019-03-29T04:58:36.018Z,100366.31
2019-03-29T05:01:03.647Z,100374.19
2019-03-29T05:03:30.938Z,100373.69
2019-03-29T05:05:58.219Z,100376.09
2019-03-29T05:08:25.512Z,100375.09
2019-03-29T05:10:52.895Z,100373.93
2019-03-29T05:13:20.155Z,100374.55
2019-03-29T05:15:47.447Z,100375.45
2019-03-29T05:18:14.748Z,100377.98
2019-03-29T05:20:42.223Z,100375.86
2019-03-29T05:23:09.533Z,100371.30
2019-03-29T05:25:36.821Z,100377.79
2019-03-29T05:28:05.595Z,100376.56
2019-03-29T05:30:33.035Z,100377.59
2019-03-29T05:33:00.777Z,100379.19
2019-03-29T05:35:28.309Z,100381.78
2019-03-29T05:37:55.614Z,100376.53
2019-03-29T05:40:34.245Z,100376.56
2019-03-29T05:42:52.423Z,100374.28
2019-03-29T05:45:19.844Z,100375.87
2019-03-29T05:47:47.329Z,100374.77
2019-03-29T05:50:14.763Z,100369.57
2019-03-29T05:52:42.185Z,100378.77
2019-03-29T05:55:09.709Z,100387.95
2019-03-29T05:57:37.891Z,100372.58
2019-03-29T06:00:06.701Z,100383.00
2019-03-29T06:02:34.201Z,100373.65
2019-03-29T06:05:01.575Z,100371.31
2019-03-29T06:07:28.873Z,100380.30
2019-03-29T06:09:56.254Z,100369.57
2019-03-29T06:12:23.681Z,100373.42
2019-03-29T06:14:54.160Z,100372.77
2019-03-29T06:17:23.691Z,100372.77
2019-03-29T06:19:51.087Z,100379.95
2019-03-29T06:22:18.418Z,100379.95
2019-03-29T06:24:46.257Z,100374.62
2019-03-29T06:27:13.807Z,100345.76
2019-03-29T06:29:41.293Z,100371.64
2019-03-29T06:32:08.715Z,100378.50
2019-03-29T06:34:36.895Z,100367.41
2019-03-29T06:37:24.316Z,100369.86
2019-03-29T06:39:51.671Z,100371.56
2019-03-29T06:42:19.103Z,100368.72
2019-03-29T06:44:46.532Z,100369.33
2019-03-29T06:47:14.464Z,100371.55
2019-03-29T06:49:41.774Z,100361.84
2019-03-29T06:52:09.156Z,100362.31
2019-03-29T06:54:39.281Z,100376.95
2019-03-29T06:57:06.616Z,100375.59
2019-03-29T06:59:33.989Z,100376.58
2019-03-29T07:02:01.364Z,100375.22
2019-03-29T07:04:28.727Z,100380.11
2019-03-29T07:06:56.141Z,100368.02
2019-03-29T07:09:23.565Z,100375.38
2019-03-29T07:11:50.886Z,100378.88
2019-03-29T07:14:18.399Z,100374.41
2019-03-29T07:16:46.041Z,100375.55
2019-03-29T07:19:13.335Z,100363.55
2019-03-29T07:21:41.127Z,100372.13
2019-03-29T07:24:08.481Z,100362.72
2019-03-29T07:26:35.815Z,100362.81
2019-03-29T07:29:03.197Z,100353.27
2019-03-29T07:31:30.685Z,100361.25
2019-03-29T07:33:59.218Z,100349.52
2019-03-29T07:36:34.525Z,100348.87
2019-03-29T07:39:02.232Z,100351.42
2019-03-29T07:41:32.028Z,100336.75
2019-03-29T07:43:59.081Z,100335.08
2019-03-29T07:46:26.363Z,100342.95
2019-03-29T07:48:55.342Z,100358.53
2019-03-29T07:51:22.735Z,100340.00
2019-03-29T07:53:50.277Z,100329.74
2019-03-29T07:56:17.802Z,100324.02
2019-03-29T07:58:45.512Z,100330.59
2019-03-29T08:01:12.999Z,100344.19
2019-03-29T08:03:42.475Z,100329.94
2019-03-29T08:06:10.057Z,100316.60
2019-03-29T08:08:37.506Z,100307.92
2019-03-29T08:11:04.986Z,100315.34
2019-03-29T08:13:34.524Z,100307.93
2019-03-29T08:16:02.069Z,100334.70
2019-03-29T08:18:30.271Z,100318.86
2019-03-29T08:20:58.085Z,100302.86
2019-03-29T08:23:28.686Z,100314.13
2019-03-29T08:25:57.316Z,100310.08
2019-03-29T08:28:24.959Z,100305.06
2019-03-29T08:30:52.833Z,100319.24
2019-03-29T08:33:20.852Z,100304.28
2019-03-29T08:35:48.139Z,100305.53
2019-03-29T08:38:15.527Z,100300.59
2019-03-29T08:40:45.176Z,100311.44
2019-03-29T08:43:13.375Z,100302.63
2019-03-29T08:45:40.959Z,100289.45
2019-03-29T08:48:08.547Z,100296.78
2019-03-29T08:50:38.464Z,100301.37
2019-03-29T08:53:09.474Z,100295.03
2019-03-29T08:55:45.508Z,100296.89
2019-03-29T08:58:06.363Z,100292.13
2019-03-29T09:00:34.254Z,100279.71
2019-03-29T09:03:01.859Z,100291.17
2019-03-29T09:05:29.275Z,100285.91
2019-03-29T09:07:56.856Z,100302.55
2019-03-29T09:10:24.716Z,100279.86
2019-03-29T09:12:52.155Z,100297.70
2019-03-29T09:15:19.523Z,100283.43
2019-03-29T09:17:47.059Z,100278.52
2019-03-29T09:20:14.594Z,100277.25
2019-03-29T09:22:43.906Z,100262.41
2019-03-29T09:25:13.354Z,100270.18
2019-03-29T09:27:41.140Z,100272.09
2019-03-29T09:30:08.562Z,100262.33
2019-03-29T09:32:35.972Z,100260.35
2019-03-29T09:35:03.216Z,100259.60
2019-03-29T09:37:32.689Z,100269.45
2019-03-29T09:40:05.081Z,100259.12
2019-03-29T09:42:39.202Z,100266.11
2019-03-29T09:45:07.008Z,100279.09
2019-03-29T09:47:40.549Z,100257.61
2019-03-29T09:50:11.017Z,100254.54
2019-03-29T09:52:39.686Z,100249.31
2019-03-29T09:55:07.079Z,100248.08
2019-03-29T09:57:38.209Z,100256.88
2019-03-29T10:00:17.785Z,100241.50
2019-03-29T10:02:36.844Z,100240.44
2019-03-29T10:05:05.377Z,100235.44
2019-03-29T10:07:33.298Z,100243.43
2019-03-29T10:10:01.928Z,100239.48
2019-03-29T10:12:42.593Z,100236.83
2019-03-29T10:14:58.974Z,100235.20
2019-03-29T10:17:26.403Z,100225.34
2019-03-29T10:19:53.735Z,100228.27
2019-03-29T10:22:21.571Z,100229.66
2019-03-29T10:24:49.284Z,100233.08
2019-03-29T10:27:19.066Z,100225.92
2019-03-29T10:29:46.499Z,100226.48
2019-03-29T10:32:17.134Z,100222.81
2019-03-29T10:34:45.004Z,100218.31
2019-03-29T10:37:12.436Z,100218.12
2019-03-29T10:39:58.533Z,100214.39
2019-03-29T10:42:26.170Z,100207.77
2019-03-29T10:44:53.715Z,100209.64
2019-03-29T10:47:21.332Z,100204.55
2019-03-29T10:49:48.644Z,100198.17
2019-03-29T10:52:16.008Z,100196.28
2019-03-29T10:54:43.346Z,100208.83
2019-03-29T10:57:10.830Z,100190.69
2019-03-29T10:59:40.132Z,100190.13
2019-03-29T11:02:07.446Z,100183.19
2019-03-29T11:04:34.897Z,100187.16
2019-03-29T11:07:04.056Z,100185.05
2019-03-29T11:09:31.900Z,100206.11
2019-03-29T11:12:00.543Z,100180.20
2019-03-29T11:14:27.923Z,100181.58
2019-03-29T11:16:55.308Z,100176.23
2019-03-29T11:19:25.716Z,100179.47
2019-03-29T11:21:53.098Z,100170.41
2019-03-29T11:24:20.908Z,100185.33
2019-03-29T11:26:48.494Z,100178.69
2019-03-29T11:29:15.935Z,100173.32
2019-03-29T11:31:48.515Z,100168.27
2019-03-29T11:34:16.070Z,100161.34
2019-03-29T11:36:44.044Z,100170.69
2019-03-29T11:39:13.734Z,100160.55
2019-03-29T11:41:44.776Z,100166.15
2019-03-29T11:44:12.940Z,100162.90
2019-03-29T11:46:40.636Z,100155.45
2019-03-29T11:49:08.830Z,100156.78
2019-03-29T11:51:36.156Z,100144.50
2019-03-29T11:54:03.605Z,100143.13
2019-03-29T11:56:31.470Z,100149.77
2019-03-29T11:58:59.360Z,100166.77
2019-03-29T12:01:26.624Z,100145.84
2019-03-29T12:03:54.393Z,100155.13
2019-03-29T12:06:26.838Z,100141.23
2019-03-29T12:08:57.038Z,100145.95
2019-03-29T12:11:23.698Z,100136.77
2019-03-29T12:13:53.965Z,100149.59
2019-03-29T12:16:21.860Z,100126.73
2019-03-29T12:18:50.781Z,100130.55
2019-03-29T12:21:19.372Z,100117.84
2019-03-29T12:23:47.514Z,100120.09
2019-03-29T12:26:16.110Z,100114.95
2019-03-29T12:28:43.692Z,100113.59
2019-03-29T12:31:11.544Z,100125.48
2019-03-29T12:33:39.042Z,100138.86
2019-03-29T12:36:06.726Z,100117.09
2019-03-29T12:38:34.114Z,100121.64
2019-03-29T12:41:01.382Z,100102.05
2019-03-29T12:43:31.151Z,100108.85
2019-03-29T12:45:58.682Z,100122.28
2019-03-29T12:48:26.315Z,100095.34
2019-03-29T12:50:53.598Z,100101.73
2019-03-29T12:53:21.133Z,100087.05
2019-03-29T12:55:48.436Z,100092.70
2019-03-29T12:58:15.942Z,100084.64
2019-03-29T13:00:43.318Z,100081.14
2019-03-29T13:03:11.421Z,100084.02
2019-03-29T13:05:38.846Z,100072.14
2019-03-29T13:08:06.182Z,100072.47
2019-03-29T13:10:33.825Z,100065.03
2019-03-29T13:13:01.186Z,100058.95
2019-03-29T13:15:30.869Z,100063.47
2019-03-29T13:18:01.180Z,100054.09
2019-03-29T13:20:28.991Z,100038.48
2019-03-29T13:22:56.308Z,100034.45
2019-03-29T13:25:24.200Z,100035.97
2019-03-29T13:27:51.532Z,100032.07
2019-03-29T13:30:20.959Z,100034.86
2019-03-29T13:32:50.617Z,100027.56
2019-03-29T13:35:17.971Z,100017.34
2019-03-29T13:37:45.414Z,100013.05
2019-03-29T13:40:13.013Z,100019.11
2019-03-29T13:42:40.317Z,100014.31
2019-03-29T13:45:07.737Z,100019.20
2019-03-29T13:47:35.617Z,100006.58
2019-03-29T13:50:03.354Z,100006.52
2019-03-29T13:52:31.331Z,99992.53
2019-03-29T13:54:58.706Z,99992.77
2019-03-29T13:57:26.023Z,99996.36
2019-03-29T13:59:54.117Z,99995.28
2019-03-29T14:02:21.985Z,99988.25
2019-03-29T14:04:49.295Z,99987.45
2019-03-29T14:07:16.789Z,99986.80
2019-03-29T14:09:44.228Z,99980.13
2019-03-29T14:12:11.805Z,99980.44
2019-03-29T14:14:39.262Z,99973.72
2019-03-29T14:17:06.919Z,99970.46
2019-03-29T14:19:34.191Z,99961.36
2019-03-29T14:22:01.520Z,99969.22
2019-03-29T14:24:31.203Z,99964.76
2019-03-29T14:26:59.301Z,99959.63
2019-03-29T14:29:26.831Z,99985.48
2019-03-29T14:31:54.434Z,99955.18
2019-03-29T14:34:21.998Z,99963.19
2019-03-29T14:36:54.559Z,99955.40
2019-03-29T14:39:22.328Z,99949.55
2019-03-29T14:41:50.285Z,99971.86
2019-03-29T14:44:18.141Z,99941.38
2019-03-29T14:46:45.526Z,99936.23
2019-03-29T14:49:13.373Z,99942.97
2019-03-29T14:51:40.826Z,99945.11
2019-03-29T14:54:08.351Z,99930.44
2019-03-29T14:56:36.169Z,99919.44
2019-03-29T14:59:09.567Z,99914.53
2019-03-29T15:01:37.019Z,99912.47
2019-03-29T15:04:04.953Z,99907.89
2019-03-29T15:06:32.329Z,99912.39
2019-03-29T15:09:00.093Z,99917.20
2019-03-29T15:11:27.600Z,99906.73
2019-03-29T15:13:55.121Z,99912.14
2019-03-29T15:16:22.718Z,99912.78
2019-03-29T15:18:50.126Z,99899.12
2019-03-29T15:21:17.478Z,99908.16
2019-03-29T15:23:44.882Z,99904.39
2019-03-29T15:26:14.985Z,99897.48
2019-03-29T15:28:42.285Z,99899.34
2019-03-29T15:31:09.991Z,99898.63
2019-03-29T15:33:37.859Z,99901.70
2019-03-29T15:36:06.451Z,99896.50
2019-03-29T15:38:33.752Z,99901.15
2019-03-29T15:41:03.079Z,99893.95
2019-03-29T15:43:33.900Z,99891.12
2019-03-29T15:46:01.304Z,99886.02
2019-03-29T15:48:28.727Z,99889.27
2019-03-29T15:50:56.048Z,99883.06
2019-03-29T15:53:24.548Z,99885.62
2019-03-29T15:55:52.033Z,99880.94
2019-03-29T15:58:19.805Z,99884.52
2019-03-29T16:00:47.911Z,99891.29
2019-03-29T16:03:15.075Z,99872.74
2019-03-29T16:05:42.448Z,99875.62
2019-03-29T16:08:09.749Z,99873.52
2019-03-29T16:10:37.410Z,99874.92
2019-03-29T16:13:04.769Z,99873.11
2019-03-29T16:15:35.162Z,99872.57
2019-03-29T16:18:03.555Z,99871.02
2019-03-29T16:20:30.886Z,99865.97
2019-03-29T16:22:58.256Z,99868.88
2019-03-29T16:25:25.559Z,99873.25
2019-03-29T16:27:52.846Z,99870.11
2019-03-29T16:30:20.341Z,99868.71
2019-03-29T16:32:47.656Z,99870.91
2019-03-29T16:35:14.930Z,99872.44
2019-03-29T16:37:42.278Z,99866.69
2019-03-29T16:40:09.923Z,99859.20
2019-03-29T16:42:37.251Z,99864.94
2019-03-29T16:45:04.691Z,99872.64
2019-03-29T16:47:32.424Z,99870.38
2019-03-29T16:49:59.769Z,99869.80
2019-03-29T16:52:27.437Z,99866.22
2019-03-29T16:54:54.910Z,99863.97
2019-03-29T16:57:22.282Z,99862.28
2019-03-29T16:59:49.761Z,99862.41
2019-03-29T17:02:17.075Z,99861.78
2019-03-29T17:04:44.381Z,99857.42
2019-03-29T17:07:11.669Z,99863.54
2019-03-29T17:09:39.343Z,99857.78
2019-03-29T17:12:06.893Z,99861.23
2019-03-29T17:14:34.287Z,99861.01
2019-03-29T17:17:01.679Z,99861.86
2019-03-29T17:19:28.947Z,99858.98
2019-03-29T17:21:58.585Z,99853.73
2019-03-29T17:24:25.886Z,99860.58
2019-03-29T17:26:53.119Z,99862.77
2019-03-29T17:29:20.404Z,99861.92
2019-03-29T17:31:47.722Z,99853.09
2019-03-29T17:34:15.109Z,99855.08
2019-03-29T17:36:42.368Z,99862.17
2019-03-29T17:39:09.804Z,99859.03
2019-03-29T17:41:37.040Z,99860.43
2019-03-29T17:44:04.356Z,99861.77
2019-03-29T17:46:31.622Z,99864.24
2019-03-29T17:48:58.899Z,99866.23
2019-03-29T17:51:26.163Z,99869.70
2019-03-29T17:53:53.525Z,99865.98
2019-03-29T17:56:21.233Z,99871.36
2019-03-29T17:58:48.533Z,99864.84
2019-03-29T18:01:15.826Z,99868.83
2019-03-29T18:03:43.185Z,99872.59
2019-03-29T18:06:10.599Z,99880.09
2019-03-29T18:08:38.073Z,99877.07
2019-03-29T18:11:05.367Z,99876.93
2019-03-29T18:13:33.067Z,99870.06
2019-03-29T18:16:00.561Z,99867.70
2019-03-29T18:18:28.195Z,99877.41
2019-03-29T18:20:55.481Z,99871.02
2019-03-29T18:23:24.960Z,99873.95
2019-03-29T18:25:51.938Z,99871.91
2019-03-29T18:28:19.208Z,99866.61
2019-03-29T18:30:46.455Z,99869.95
2019-03-29T18:33:13.755Z,99871.43
2019-03-29T18:35:41.357Z,99872.31
2019-03-29T18:38:08.639Z,99870.98
2019-03-29T18:40:35.956Z,99699.00
2019-03-29T18:43:03.276Z,99877.81
2019-03-29T18:45:30.668Z,99869.36
2019-03-29T18:47:58.067Z,99876.05
2019-03-29T18:50:25.360Z,99900.30
2019-03-29T18:52:52.645Z,99874.95
2019-03-29T18:55:20.194Z,99877.19
2019-03-29T18:57:47.491Z,99874.09
2019-03-29T19:00:18.668Z,99873.59
2019-03-29T19:02:45.964Z,99879.47
2019-03-29T19:05:22.587Z,99878.74
2019-03-29T19:07:51.934Z,99877.73
2019-03-29T19:10:19.376Z,99874.30
2019-03-29T19:12:46.679Z,99874.58
2019-03-29T19:15:13.969Z,99875.20
2019-03-29T19:17:41.366Z,99877.61
2019-03-29T19:20:10.140Z,99881.36
2019-03-29T19:22:38.103Z,99886.97
2019-03-29T19:25:05.754Z,99880.03
2019-03-29T19:27:33.114Z,99873.41
2019-03-29T19:30:00.821Z,99880.36
2019-03-29T19:32:28.340Z,99878.24
2019-03-29T19:34:55.874Z,99866.27
2019-03-29T19:37:23.235Z,99871.81
2019-03-29T19:39:50.652Z,99880.83
2019-03-29T19:42:18.189Z,99878.44
2019-03-29T19:44:45.466Z,99873.35
2019-03-29T19:47:14.054Z,99879.20
2019-03-29T19:49:41.538Z,99862.73
2019-03-29T19:52:10.171Z,99882.91
2019-03-29T19:54:37.767Z,99868.79
2019-03-29T19:57:05.509Z,99878.06
2019-03-29T19:59:32.715Z,99869.25
2019-03-29T20:01:59.980Z,99870.56
2019-03-29T20:04:27.627Z,99879.55
2019-03-29T20:06:54.915Z,99860.68
2019-03-29T20:09:22.177Z,99887.99
2019-03-29T20:11:49.798Z,99856.59
2019-03-29T20:14:17.081Z,99857.30
2019-03-29T20:16:44.447Z,99856.43
2019-03-29T20:19:11.700Z,99857.98
2019-03-29T20:21:43.790Z,99861.13
2019-03-29T20:24:11.575Z,99861.14
2019-03-29T20:26:39.361Z,99859.19
2019-03-29T20:29:06.633Z,99864.56
2019-03-29T20:31:34.063Z,99860.84
2019-03-29T20:34:01.944Z,99863.78
2019-03-29T20:36:31.290Z,99856.56
2019-03-29T20:38:58.754Z,99855.47
2019-03-29T20:41:27.524Z,99851.20
2019-03-29T20:43:55.054Z,99850.59
2019-03-29T20:46:22.368Z,99877.29
2019-03-29T20:48:49.784Z,99852.77
2019-03-29T20:51:17.231Z,99883.73
2019-03-29T20:53:44.818Z,99888.58
2019-03-29T20:56:14.028Z,99860.17
2019-03-29T20:58:41.320Z,99864.67
2019-03-29T21:01:08.612Z,99852.98
2019-03-29T21:03:36.235Z,99854.78
2019-03-29T21:06:03.820Z,99855.86
2019-03-29T21:08:31.456Z,99853.50
2019-03-29T21:11:00.582Z,99850.42
2019-03-29T21:13:28.139Z,99856.85
2019-03-29T21:15:55.586Z,99841.96
2019-03-29T21:18:22.965Z,99848.41
2019-03-29T21:20:50.477Z,99846.86
2019-03-29T21:23:19.716Z,99839.44
2019-03-29T21:25:48.889Z,99842.23
2019-03-29T21:28:16.761Z,99842.78
2019-03-29T21:30:45.178Z,99840.76
2019-03-29T21:33:12.800Z,99837.44
2019-03-29T21:35:40.587Z,99833.39
2019-03-29T21:38:09.862Z,99826.52
2019-03-29T21:40:37.824Z,99829.30
2019-03-29T21:43:05.272Z,99831.70
2019-03-29T21:45:32.552Z,99828.31
2019-03-29T21:48:09.965Z,99815.83
2019-03-29T21:50:33.992Z,99820.05
2019-03-29T21:53:01.539Z,99820.70
2019-03-29T21:55:28.790Z,99827.12
2019-03-29T21:57:56.172Z,99819.58
2019-03-29T22:00:24.444Z,99816.64
2019-03-29T22:02:51.867Z,99815.36
2019-03-29T22:05:19.132Z,99809.86
2019-03-29T22:07:46.725Z,99813.78
2019-03-29T22:10:14.779Z,99809.73
2019-03-29T22:12:43.256Z,99803.13
2019-03-29T22:15:10.764Z,99809.38
2019-03-29T22:17:42.061Z,99804.77
2019-03-29T22:20:10.885Z,99811.42
2019-03-29T22:22:38.236Z,99810.47
2019-03-29T22:25:06.529Z,99804.97
2019-03-29T22:27:34.251Z,99804.27
2019-03-29T22:30:01.533Z,99807.73
2019-03-29T22:32:28.828Z,99802.19
2019-03-29T22:34:56.185Z,99801.20
2019-03-29T22:37:23.760Z,99798.47
2019-03-29T22:39:54.315Z,99802.06
2019-03-29T22:42:21.630Z,99805.56
2019-03-29T22:44:49.084Z,99795.36
2019-03-29T22:47:16.500Z,99797.17
2019-03-29T22:49:44.590Z,99790.80
2019-03-29T22:52:11.986Z,99793.53
2019-03-29T22:54:39.504Z,99799.37
2019-03-29T22:57:06.891Z,99793.75
2019-03-29T22:59:34.740Z,99791.12
2019-03-29T23:02:02.127Z,99792.28
2019-03-29T23:04:29.700Z,99799.11
2019-03-29T23:07:00.030Z,99790.82
2019-03-29T23:09:27.272Z,99795.16
2019-03-29T23:11:54.547Z,99801.75
2019-03-29T23:14:22.146Z,99794.17
2019-03-29T23:16:49.710Z,99792.50
2019-03-29T23:19:17.298Z,99783.84
2019-03-29T23:21:45.054Z,99789.86
2019-03-29T23:24:12.327Z,99786.66
2019-03-29T23:26:39.611Z,99779.25
2019-03-29T23:29:06.874Z,99781.63
2019-03-29T23:31:34.377Z,99786.89
2019-03-29T23:34:01.681Z,99766.55
2019-03-29T23:36:28.938Z,99784.14
2019-03-29T23:38:56.220Z,99775.09
2019-03-29T23:41:23.636Z,99773.91
2019-03-29T23:43:50.876Z,99776.59
2019-03-29T23:46:18.972Z,99774.65
2019-03-29T23:48:46.376Z,99813.02
2019-03-29T23:51:13.622Z,99769.80
2019-03-29T23:53:40.889Z,99776.50
2019-03-29T23:56:08.221Z,99774.25
2019-03-29T23:58:35.475Z,99778.72
